sensor_id;sensor_type;location;lat;lon;timestamp;pressure;altitude;pressure_sealevel;temperature;humidity
49585;BME280;35491;49.142;9.210;2023-05-03T00:00:26;100745.06;;;11.08;64.42
49585;BME280;35491;49.142;9.210;2023-05-03T00:01:28;100742.53;;;11.07;64.59
49585;BME280;35491;49.142;9.210;2023-05-03T00:02:31;100748.13;;;11.04;64.39
49585;BME280;35491;49.142;9.210;2023-05-03T00:03:33;100749.25;;;11.01;64.65
49585;BME280;35491;49.142;9.210;2023-05-03T00:04:37;100746.09;;;10.96;64.77
49585;BME280;35491;49.142;9.210;2023-05-03T00:05:41;100749.78;;;10.95;64.88
49585;BME280;35491;49.142;9.210;2023-05-03T00:06:45;100749.44;;;10.88;64.91
49585;BME280;35491;49.142;9.210;2023-05-03T00:07:46;100753.25;;;10.86;65.14
49585;BME280;35491;49.142;9.210;2023-05-03T00:08:50;100760.97;;;10.89;65.07
49585;BME280;35491;49.142;9.210;2023-05-03T00:09:51;100765.09;;;10.93;64.94
49585;BME280;35491;49.142;9.210;2023-05-03T00:10:58;100756.22;;;10.92;65.02
49585;BME280;35491;49.142;9.210;2023-05-03T00:11:59;100755.25;;;10.93;64.94
49585;BME280;35491;49.142;9.210;2023-05-03T00:13:04;100753.44;;;10.94;64.92
49585;BME280;35491;49.142;9.210;2023-05-03T00:14:06;100763.41;;;10.92;64.94
49585;BME280;35491;49.142;9.210;2023-05-03T00:15:10;100758.50;;;10.97;64.66
49585;BME280;35491;49.142;9.210;2023-05-03T00:16:11;100753.50;;;11.04;64.46
49585;BME280;35491;49.142;9.210;2023-05-03T00:17:15;100755.63;;;11.10;63.95
49585;BME280;35491;49.142;9.210;2023-05-03T00:18:16;100754.41;;;11.14;63.87
49585;BME280;35491;49.142;9.210;2023-05-03T00:19:20;100760.28;;;11.08;64.34
49585;BME280;35491;49.142;9.210;2023-05-03T00:20:21;100758.00;;;11.03;64.42
49585;BME280;35491;49.142;9.210;2023-05-03T00:21:28;100759.63;;;10.95;64.73
49585;BME280;35491;49.142;9.210;2023-05-03T00:22:29;100751.72;;;10.93;64.72
49585;BME280;35491;49.142;9.210;2023-05-03T00:23:33;100752.72;;;10.92;65.08
49585;BME280;35491;49.142;9.210;2023-05-03T00:24:34;100752.22;;;10.87;65.11
49585;BME280;35491;49.142;9.210;2023-05-03T00:25:38;100759.56;;;10.85;65.24
49585;BME280;35491;49.142;9.210;2023-05-03T00:26:40;100757.97;;;10.82;65.29
49585;BME280;35491;49.142;9.210;2023-05-03T00:27:44;100756.31;;;10.81;65.45
49585;BME280;35491;49.142;9.210;2023-05-03T00:28:45;100755.69;;;10.77;65.53
49585;BME280;35491;49.142;9.210;2023-05-03T00:29:49;100758.63;;;10.74;65.66
49585;BME280;35491;49.142;9.210;2023-05-03T00:30:51;100753.41;;;10.73;65.70
49585;BME280;35491;49.142;9.210;2023-05-03T00:31:54;100751.81;;;10.70;65.79
49585;BME280;35491;49.142;9.210;2023-05-03T00:32:56;100755.22;;;10.72;65.49
49585;BME280;35491;49.142;9.210;2023-05-03T00:33:59;100758.03;;;10.71;65.82
49585;BME280;35491;49.142;9.210;2023-05-03T00:35:01;100753.41;;;10.73;65.71
49585;BME280;35491;49.142;9.210;2023-05-03T00:36:08;100758.88;;;10.71;65.87
49585;BME280;35491;49.142;9.210;2023-05-03T00:37:15;100756.19;;;10.71;65.75
49585;BME280;35491;49.142;9.210;2023-05-03T00:38:19;100757.06;;;10.72;65.61
49585;BME280;35491;49.142;9.210;2023-05-03T00:39:20;100754.50;;;10.70;65.53
49585;BME280;35491;49.142;9.210;2023-05-03T00:40:24;100749.69;;;10.64;66.11
49585;BME280;35491;49.142;9.210;2023-05-03T00:41:28;100755.66;;;10.56;66.11
49585;BME280;35491;49.142;9.210;2023-05-03T00:42:29;100751.19;;;10.57;66.16
49585;BME280;35491;49.142;9.210;2023-05-03T00:43:33;100752.53;;;10.51;66.37
49585;BME280;35491;49.142;9.210;2023-05-03T00:44:35;100752.78;;;10.48;66.52
49585;BME280;35491;49.142;9.210;2023-05-03T00:45:39;100747.56;;;10.47;66.84
49585;BME280;35491;49.142;9.210;2023-05-03T00:46:41;100751.22;;;10.45;66.42
49585;BME280;35491;49.142;9.210;2023-05-03T00:47:45;100743.91;;;10.48;66.75
49585;BME280;35491;49.142;9.210;2023-05-03T00:48:46;100749.97;;;10.50;66.49
49585;BME280;35491;49.142;9.210;2023-05-03T00:49:51;100746.59;;;10.48;66.78
49585;BME280;35491;49.142;9.210;2023-05-03T00:50:52;100738.69;;;10.46;66.54
49585;BME280;35491;49.142;9.210;2023-05-03T00:51:57;100738.56;;;10.48;66.46
49585;BME280;35491;49.142;9.210;2023-05-03T00:53:01;100732.50;;;10.45;66.82
49585;BME280;35491;49.142;9.210;2023-05-03T00:54:05;100738.81;;;10.44;66.94
49585;BME280;35491;49.142;9.210;2023-05-03T00:55:07;100738.34;;;10.39;66.91
49585;BME280;35491;49.142;9.210;2023-05-03T00:56:12;100739.41;;;10.37;66.90
49585;BME280;35491;49.142;9.210;2023-05-03T00:57:17;100734.00;;;10.38;67.09
49585;BME280;35491;49.142;9.210;2023-05-03T00:58:22;100734.97;;;10.37;66.83
49585;BME280;35491;49.142;9.210;2023-05-03T00:59:23;100740.91;;;10.41;66.86
49585;BME280;35491;49.142;9.210;2023-05-03T01:00:27;100731.91;;;10.42;66.63
49585;BME280;35491;49.142;9.210;2023-05-03T01:01:29;100730.94;;;10.43;66.76
49585;BME280;35491;49.142;9.210;2023-05-03T01:02:33;100738.81;;;10.44;66.59
49585;BME280;35491;49.142;9.210;2023-05-03T01:03:34;100734.31;;;10.45;66.59
49585;BME280;35491;49.142;9.210;2023-05-03T01:04:41;100727.41;;;10.42;66.83
49585;BME280;35491;49.142;9.210;2023-05-03T01:05:47;100733.59;;;10.32;67.20
49585;BME280;35491;49.142;9.210;2023-05-03T01:06:57;100737.13;;;10.32;67.02
49585;BME280;35491;49.142;9.210;2023-05-03T01:08:05;100725.25;;;10.25;67.21
49585;BME280;35491;49.142;9.210;2023-05-03T01:09:16;100738.22;;;10.29;67.29
49585;BME280;35491;49.142;9.210;2023-05-03T01:10:21;100740.75;;;10.31;67.44
49585;BME280;35491;49.142;9.210;2023-05-03T01:11:28;100731.78;;;10.32;67.09
49585;BME280;35491;49.142;9.210;2023-05-03T01:12:34;100735.66;;;10.39;66.69
49585;BME280;35491;49.142;9.210;2023-05-03T01:13:42;100734.19;;;10.35;67.17
49585;BME280;35491;49.142;9.210;2023-05-03T01:14:47;100741.34;;;10.35;67.05
49585;BME280;35491;49.142;9.210;2023-05-03T01:15:57;100735.16;;;10.34;67.29
49585;BME280;35491;49.142;9.210;2023-05-03T01:17:03;100738.81;;;10.33;67.34
49585;BME280;35491;49.142;9.210;2023-05-03T01:18:08;100729.97;;;10.33;67.13
49585;BME280;35491;49.142;9.210;2023-05-03T01:19:14;100739.34;;;10.27;67.12
49585;BME280;35491;49.142;9.210;2023-05-03T01:20:21;100737.88;;;10.23;67.74
49585;BME280;35491;49.142;9.210;2023-05-03T01:21:25;100740.56;;;10.11;68.09
49585;BME280;35491;49.142;9.210;2023-05-03T01:22:31;100739.28;;;10.06;68.31
49585;BME280;35491;49.142;9.210;2023-05-03T01:23:42;100735.72;;;10.05;67.97
49585;BME280;35491;49.142;9.210;2023-05-03T01:24:45;100737.06;;;9.99;68.44
49585;BME280;35491;49.142;9.210;2023-05-03T01:25:53;100746.66;;;10.02;68.27
49585;BME280;35491;49.142;9.210;2023-05-03T01:26:54;100743.75;;;9.94;68.67
49585;BME280;35491;49.142;9.210;2023-05-03T01:27:58;100741.09;;;9.94;68.55
49585;BME280;35491;49.142;9.210;2023-05-03T01:29:01;100739.16;;;9.96;68.56
49585;BME280;35491;49.142;9.210;2023-05-03T01:30:06;100738.41;;;9.94;68.78
49585;BME280;35491;49.142;9.210;2023-05-03T01:31:07;100746.44;;;9.94;68.58
49585;BME280;35491;49.142;9.210;2023-05-03T01:32:12;100746.44;;;9.94;68.54
49585;BME280;35491;49.142;9.210;2023-05-03T01:33:15;100745.09;;;9.88;68.97
49585;BME280;35491;49.142;9.210;2023-05-03T01:34:26;100733.72;;;9.86;68.79
49585;BME280;35491;49.142;9.210;2023-05-03T01:35:31;100734.53;;;9.87;68.65
49585;BME280;35491;49.142;9.210;2023-05-03T01:36:39;100736.13;;;9.89;68.85
49585;BME280;35491;49.142;9.210;2023-05-03T01:37:44;100735.16;;;9.90;68.74
49585;BME280;35491;49.142;9.210;2023-05-03T01:38:49;100729.06;;;9.88;68.86
49585;BME280;35491;49.142;9.210;2023-05-03T01:39:52;100737.34;;;9.85;69.02
49585;BME280;35491;49.142;9.210;2023-05-03T01:41:02;100730.41;;;9.82;68.85
49585;BME280;35491;49.142;9.210;2023-05-03T01:42:05;100735.28;;;9.77;69.01
49585;BME280;35491;49.142;9.210;2023-05-03T01:43:10;100734.56;;;9.75;69.31
49585;BME280;35491;49.142;9.210;2023-05-03T01:44:12;100736.13;;;9.78;69.01
49585;BME280;35491;49.142;9.210;2023-05-03T01:45:16;100730.91;;;9.76;69.24
49585;BME280;35491;49.142;9.210;2023-05-03T01:46:18;100731.66;;;9.78;69.22
49585;BME280;35491;49.142;9.210;2023-05-03T01:47:22;100728.00;;;9.79;69.22
49585;BME280;35491;49.142;9.210;2023-05-03T01:48:23;100722.16;;;9.74;69.76
49585;BME280;35491;49.142;9.210;2023-05-03T01:49:27;100731.03;;;9.75;69.62
49585;BME280;35491;49.142;9.210;2023-05-03T01:50:28;100727.28;;;9.77;69.44
49585;BME280;35491;49.142;9.210;2023-05-03T01:51:32;100725.81;;;9.84;69.24
49585;BME280;35491;49.142;9.210;2023-05-03T01:52:33;100720.97;;;9.90;68.60
49585;BME280;35491;49.142;9.210;2023-05-03T01:53:37;100718.53;;;9.87;68.76
49585;BME280;35491;49.142;9.210;2023-05-03T01:54:38;100725.56;;;9.88;69.07
49585;BME280;35491;49.142;9.210;2023-05-03T01:55:42;100729.69;;;9.92;68.74
49585;BME280;35491;49.142;9.210;2023-05-03T01:56:46;100727.88;;;9.92;68.73
49585;BME280;35491;49.142;9.210;2023-05-03T01:57:50;100728.25;;;9.88;69.11
49585;BME280;35491;49.142;9.210;2023-05-03T01:58:51;100729.56;;;9.93;68.97
49585;BME280;35491;49.142;9.210;2023-05-03T01:59:55;100725.78;;;9.96;68.66
49585;BME280;35491;49.142;9.210;2023-05-03T02:00:56;100731.38;;;9.93;69.16
49585;BME280;35491;49.142;9.210;2023-05-03T02:02:00;100733.06;;;9.94;68.88
49585;BME280;35491;49.142;9.210;2023-05-03T02:03:01;100735.03;;;9.92;68.83
49585;BME280;35491;49.142;9.210;2023-05-03T02:04:05;100731.38;;;9.93;68.81
49585;BME280;35491;49.142;9.210;2023-05-03T02:05:07;100743.75;;;9.94;68.67
49585;BME280;35491;49.142;9.210;2023-05-03T02:06:12;100733.72;;;9.86;69.07
49585;BME280;35491;49.142;9.210;2023-05-03T02:07:13;100733.56;;;9.88;68.98
49585;BME280;35491;49.142;9.210;2023-05-03T02:08:17;100745.22;;;9.87;69.34
49585;BME280;35491;49.142;9.210;2023-05-03T02:09:18;100734.31;;;9.90;68.96
49585;BME280;35491;49.142;9.210;2023-05-03T02:10:22;100734.31;;;9.90;69.08
49585;BME280;35491;49.142;9.210;2023-05-03T02:11:23;100737.44;;;9.95;68.61
49585;BME280;35491;49.142;9.210;2023-05-03T02:12:30;100740.38;;;9.92;68.64
49585;BME280;35491;49.142;9.210;2023-05-03T02:13:31;100731.88;;;9.87;69.08
49585;BME280;35491;49.142;9.210;2023-05-03T02:14:35;100733.44;;;9.78;69.59
49585;BME280;35491;49.142;9.210;2023-05-03T02:15:36;100731.19;;;9.62;69.92
49585;BME280;35491;49.142;9.210;2023-05-03T02:16:41;100736.75;;;9.59;69.90
49585;BME280;35491;49.142;9.210;2023-05-03T02:17:43;100733.34;;;9.57;69.97
49585;BME280;35491;49.142;9.210;2023-05-03T02:18:48;100732.63;;;9.55;70.14
49585;BME280;35491;49.142;9.210;2023-05-03T02:19:51;100730.81;;;9.44;70.64
49585;BME280;35491;49.142;9.210;2023-05-03T02:20:55;100731.66;;;9.44;70.64
49585;BME280;35491;49.142;9.210;2023-05-03T02:21:57;100738.94;;;9.42;70.84
49585;BME280;35491;49.142;9.210;2023-05-03T02:23:01;100731.91;;;9.41;70.66
49585;BME280;35491;49.142;9.210;2023-05-03T02:24:02;100731.16;;;9.39;70.81
49585;BME280;35491;49.142;9.210;2023-05-03T02:25:06;100737.81;;;9.33;70.91
49585;BME280;35491;49.142;9.210;2023-05-03T02:26:08;100748.13;;;9.38;70.79
49585;BME280;35491;49.142;9.210;2023-05-03T02:27:12;100737.25;;;9.41;71.02
49585;BME280;35491;49.142;9.210;2023-05-03T02:28:16;100739.53;;;9.46;70.50
49585;BME280;35491;49.142;9.210;2023-05-03T02:29:20;100726.56;;;9.41;70.94
49585;BME280;35491;49.142;9.210;2023-05-03T02:30:21;100739.41;;;9.36;70.77
49585;BME280;35491;49.142;9.210;2023-05-03T02:31:25;100737.97;;;9.32;71.38
49585;BME280;35491;49.142;9.210;2023-05-03T02:32:26;100735.16;;;9.33;71.21
49585;BME280;35491;49.142;9.210;2023-05-03T02:33:30;100730.44;;;9.26;71.42
49585;BME280;35491;49.142;9.210;2023-05-03T02:34:31;100742.09;;;9.25;71.36
49585;BME280;35491;49.142;9.210;2023-05-03T02:35:36;100729.94;;;9.20;71.54
49585;BME280;35491;49.142;9.210;2023-05-03T02:36:37;100731.63;;;9.21;71.74
49585;BME280;35491;49.142;9.210;2023-05-03T02:37:41;100729.94;;;9.20;71.73
49585;BME280;35491;49.142;9.210;2023-05-03T02:38:42;100729.81;;;9.22;71.55
49585;BME280;35491;49.142;9.210;2023-05-03T02:39:46;100738.78;;;9.21;71.79
49585;BME280;35491;49.142;9.210;2023-05-03T02:40:47;100738.16;;;9.17;71.76
49585;BME280;35491;49.142;9.210;2023-05-03T02:41:51;100738.78;;;9.10;72.14
49585;BME280;35491;49.142;9.210;2023-05-03T02:42:52;100726.03;;;9.02;72.69
49585;BME280;35491;49.142;9.210;2023-05-03T02:43:58;100743.00;;;9.01;72.85
49585;BME280;35491;49.142;9.210;2023-05-03T02:44:59;100731.72;;;8.97;72.87
49585;BME280;35491;49.142;9.210;2023-05-03T02:46:04;100733.28;;;9.00;72.61
49585;BME280;35491;49.142;9.210;2023-05-03T02:47:05;100738.88;;;9.08;72.18
49585;BME280;35491;49.142;9.210;2023-05-03T02:48:09;100743.25;;;9.09;72.08
49585;BME280;35491;49.142;9.210;2023-05-03T02:49:11;100741.91;;;9.03;72.47
49585;BME280;35491;49.142;9.210;2023-05-03T02:50:15;100733.06;;;9.03;72.54
49585;BME280;35491;49.142;9.210;2023-05-03T02:51:16;100739.13;;;9.05;72.58
49585;BME280;35491;49.142;9.210;2023-05-03T02:52:20;100738.41;;;9.03;72.41
49585;BME280;35491;49.142;9.210;2023-05-03T02:53:22;100738.00;;;8.96;72.80
49585;BME280;35491;49.142;9.210;2023-05-03T02:54:25;100734.50;;;8.96;72.37
49585;BME280;35491;49.142;9.210;2023-05-03T02:55:26;100733.63;;;8.95;72.81
49585;BME280;35491;49.142;9.210;2023-05-03T02:56:31;100738.22;;;8.93;72.66
49585;BME280;35491;49.142;9.210;2023-05-03T02:57:33;100737.00;;;8.86;73.27
49585;BME280;35491;49.142;9.210;2023-05-03T02:58:37;100734.47;;;8.84;72.83
49585;BME280;35491;49.142;9.210;2023-05-03T02:59:42;100734.94;;;8.78;73.35
49585;BME280;35491;49.142;9.210;2023-05-03T03:00:46;100736.88;;;8.76;73.22
49585;BME280;35491;49.142;9.210;2023-05-03T03:01:48;100734.44;;;8.73;73.43
49585;BME280;35491;49.142;9.210;2023-05-03T03:02:52;100733.47;;;8.74;73.32
49585;BME280;35491;49.142;9.210;2023-05-03T03:03:53;100738.06;;;8.72;73.17
49585;BME280;35491;49.142;9.210;2023-05-03T03:04:57;100740.84;;;8.70;73.52
49585;BME280;35491;49.142;9.210;2023-05-03T03:05:58;100749.69;;;8.71;73.71
49585;BME280;35491;49.142;9.210;2023-05-03T03:07:02;100737.31;;;8.70;73.48
49585;BME280;35491;49.142;9.210;2023-05-03T03:08:04;100741.69;;;8.71;73.20
49585;BME280;35491;49.142;9.210;2023-05-03T03:09:08;100746.31;;;8.69;73.70
49585;BME280;35491;49.142;9.210;2023-05-03T03:10:09;100746.53;;;8.66;74.01
49585;BME280;35491;49.142;9.210;2023-05-03T03:11:13;100745.91;;;8.62;73.84
49585;BME280;35491;49.142;9.210;2023-05-03T03:12:15;100739.72;;;8.62;73.65
49585;BME280;35491;49.142;9.210;2023-05-03T03:13:19;100742.38;;;8.62;73.72
49585;BME280;35491;49.142;9.210;2023-05-03T03:14:21;100742.28;;;8.63;73.72
49585;BME280;35491;49.142;9.210;2023-05-03T03:15:28;100743.59;;;8.57;73.46
49585;BME280;35491;49.142;9.210;2023-05-03T03:16:30;100741.75;;;8.58;73.30
49585;BME280;35491;49.142;9.210;2023-05-03T03:17:34;100744.34;;;8.60;73.21
49585;BME280;35491;49.142;9.210;2023-05-03T03:18:39;100734.84;;;8.55;73.53
49585;BME280;35491;49.142;9.210;2023-05-03T03:19:43;100744.66;;;8.55;73.42
49585;BME280;35491;49.142;9.210;2023-05-03T03:20:44;100746.13;;;8.59;73.69
49585;BME280;35491;49.142;9.210;2023-05-03T03:21:48;100737.16;;;8.60;73.31
49585;BME280;35491;49.142;9.210;2023-05-03T03:22:49;100742.38;;;8.62;73.44
49585;BME280;35491;49.142;9.210;2023-05-03T03:23:54;100746.66;;;8.64;73.31
49585;BME280;35491;49.142;9.210;2023-05-03T03:24:55;100748.97;;;8.69;73.07
49585;BME280;35491;49.142;9.210;2023-05-03T03:26:00;100743.50;;;8.70;72.69
49585;BME280;35491;49.142;9.210;2023-05-03T03:27:02;100740.72;;;8.72;72.94
49585;BME280;35491;49.142;9.210;2023-05-03T03:28:07;100745.22;;;8.71;72.99
49585;BME280;35491;49.142;9.210;2023-05-03T03:29:08;100748.09;;;8.68;72.94
49585;BME280;35491;49.142;9.210;2023-05-03T03:30:12;100748.22;;;8.67;72.70
49585;BME280;35491;49.142;9.210;2023-05-03T03:31:16;100759.63;;;8.69;72.81
49585;BME280;35491;49.142;9.210;2023-05-03T03:32:22;100748.31;;;8.65;72.69
49585;BME280;35491;49.142;9.210;2023-05-03T03:33:23;100754.34;;;8.56;73.14
49585;BME280;35491;49.142;9.210;2023-05-03T03:34:28;100752.75;;;8.53;73.59
49585;BME280;35491;49.142;9.210;2023-05-03T03:35:30;100751.06;;;8.52;73.45
49585;BME280;35491;49.142;9.210;2023-05-03T03:36:34;100749.59;;;8.48;73.09
49585;BME280;35491;49.142;9.210;2023-05-03T03:37:39;100751.41;;;8.48;73.23
49585;BME280;35491;49.142;9.210;2023-05-03T03:38:40;100761.72;;;8.52;73.12
49585;BME280;35491;49.142;9.210;2023-05-03T03:39:44;100758.09;;;8.53;73.02
49585;BME280;35491;49.142;9.210;2023-05-03T03:40:46;100749.75;;;8.58;73.16
49585;BME280;35491;49.142;9.210;2023-05-03T03:41:50;100749.41;;;8.63;72.73
49585;BME280;35491;49.142;9.210;2023-05-03T03:42:51;100754.75;;;8.63;73.03
49585;BME280;35491;49.142;9.210;2023-05-03T03:43:56;100757.53;;;8.61;72.72
49585;BME280;35491;49.142;9.210;2023-05-03T03:44:57;100755.22;;;8.56;72.97
49585;BME280;35491;49.142;9.210;2023-05-03T03:46:01;100757.97;;;8.55;72.90
49585;BME280;35491;49.142;9.210;2023-05-03T03:47:05;100755.56;;;8.52;72.99
49585;BME280;35491;49.142;9.210;2023-05-03T03:48:10;100755.31;;;8.55;72.69
49585;BME280;35491;49.142;9.210;2023-05-03T03:49:11;100755.31;;;8.55;73.32
49585;BME280;35491;49.142;9.210;2023-05-03T03:50:15;100765.13;;;8.54;72.97
49585;BME280;35491;49.142;9.210;2023-05-03T03:51:17;100762.25;;;8.57;73.01
49585;BME280;35491;49.142;9.210;2023-05-03T03:52:21;100765.88;;;8.56;72.79
49585;BME280;35491;49.142;9.210;2023-05-03T03:53:22;100769.72;;;8.52;73.34
49585;BME280;35491;49.142;9.210;2023-05-03T03:54:26;100771.75;;;8.49;73.24
49585;BME280;35491;49.142;9.210;2023-05-03T03:55:28;100768.75;;;8.53;73.14
49585;BME280;35491;49.142;9.210;2023-05-03T03:56:32;100776.00;;;8.51;72.90
49585;BME280;35491;49.142;9.210;2023-05-03T03:57:34;100776.25;;;8.48;73.11
49585;BME280;35491;49.142;9.210;2023-05-03T03:58:38;100773.91;;;8.43;72.98
49585;BME280;35491;49.142;9.210;2023-05-03T03:59:39;100772.81;;;8.46;73.14
49585;BME280;35491;49.142;9.210;2023-05-03T04:00:43;100781.16;;;8.41;73.51
49585;BME280;35491;49.142;9.210;2023-05-03T04:01:45;100774.94;;;8.41;73.12
49585;BME280;35491;49.142;9.210;2023-05-03T04:02:52;100771.56;;;8.39;73.07
49585;BME280;35491;49.142;9.210;2023-05-03T04:03:54;100773.69;;;8.34;73.48
49585;BME280;35491;49.142;9.210;2023-05-03T04:04:59;100767.63;;;8.32;73.67
49585;BME280;35491;49.142;9.210;2023-05-03T04:06:00;100780.00;;;8.33;73.65
49585;BME280;35491;49.142;9.210;2023-05-03T04:07:04;100782.78;;;8.31;73.78
49585;BME280;35491;49.142;9.210;2023-05-03T04:08:07;100782.44;;;8.36;73.45
49585;BME280;35491;49.142;9.210;2023-05-03T04:09:19;100786.06;;;8.35;73.52
49585;BME280;35491;49.142;9.210;2023-05-03T04:10:24;100783.88;;;8.28;73.53
49585;BME280;35491;49.142;9.210;2023-05-03T04:12:02;100775.25;;;8.25;73.62
49585;BME280;35491;49.142;9.210;2023-05-03T04:13:31;100784.28;;;8.22;73.62
49585;BME280;35491;49.142;9.210;2023-05-03T04:14:49;100775.47;;;8.22;73.64
49585;BME280;35491;49.142;9.210;2023-05-03T04:15:53;100777.28;;;8.21;73.66
49585;BME280;35491;49.142;9.210;2023-05-03T04:16:58;100781.00;;;8.19;74.12
49585;BME280;35491;49.142;9.210;2023-05-03T04:18:05;100779.94;;;8.21;73.78
49585;BME280;35491;49.142;9.210;2023-05-03T04:19:10;100777.28;;;8.21;73.79
49585;BME280;35491;49.142;9.210;2023-05-03T04:20:14;100775.25;;;8.25;73.41
49585;BME280;35491;49.142;9.210;2023-05-03T04:21:17;100774.38;;;8.24;73.64
49585;BME280;35491;49.142;9.210;2023-05-03T04:22:22;100783.25;;;8.25;73.35
49585;BME280;35491;49.142;9.210;2023-05-03T04:23:23;100773.19;;;8.28;73.15
49585;BME280;35491;49.142;9.210;2023-05-03T04:24:27;100778.53;;;8.28;73.42
49585;BME280;35491;49.142;9.210;2023-05-03T04:25:31;100783.63;;;8.32;73.22
49585;BME280;35491;49.142;9.210;2023-05-03T04:26:32;100784.34;;;8.34;73.12
49585;BME280;35491;49.142;9.210;2023-05-03T04:27:36;100780.75;;;8.35;72.82
49585;BME280;35491;49.142;9.210;2023-05-03T04:28:37;100783.94;;;8.40;73.02
49585;BME280;35491;49.142;9.210;2023-05-03T04:29:42;100783.81;;;8.41;72.67
49585;BME280;35491;49.142;9.210;2023-05-03T04:30:43;100786.97;;;8.47;72.19
49585;BME280;35491;49.142;9.210;2023-05-03T04:31:48;100782.84;;;8.42;72.45
49585;BME280;35491;49.142;9.210;2023-05-03T04:32:49;100787.31;;;8.42;72.27
49585;BME280;35491;49.142;9.210;2023-05-03T04:33:56;100782.72;;;8.44;72.47
49585;BME280;35491;49.142;9.210;2023-05-03T04:34:58;100783.94;;;8.40;72.03
49585;BME280;35491;49.142;9.210;2023-05-03T04:36:02;100790.56;;;8.34;72.30
49585;BME280;35491;49.142;9.210;2023-05-03T04:37:04;100788.22;;;8.30;72.82
49585;BME280;35491;49.142;9.210;2023-05-03T04:38:08;100791.59;;;8.32;72.58
49585;BME280;35491;49.142;9.210;2023-05-03T04:39:10;100792.13;;;8.37;72.71
49585;BME280;35491;49.142;9.210;2023-05-03T04:40:15;100781.66;;;8.47;72.44
49585;BME280;35491;49.142;9.210;2023-05-03T04:41:17;100783.78;;;8.54;71.81
49585;BME280;35491;49.142;9.210;2023-05-03T04:42:21;100788.16;;;8.55;71.57
49585;BME280;35491;49.142;9.210;2023-05-03T04:43:23;100792.63;;;8.55;71.63
49585;BME280;35491;49.142;9.210;2023-05-03T04:44:27;100789.00;;;8.56;71.52
49585;BME280;35491;49.142;9.210;2023-05-03T04:45:29;100787.06;;;8.58;71.41
49585;BME280;35491;49.142;9.210;2023-05-03T04:46:34;100790.94;;;8.54;71.61
49585;BME280;35491;49.142;9.210;2023-05-03T04:47:35;100783.38;;;8.48;71.57
49585;BME280;35491;49.142;9.210;2023-05-03T04:48:40;100792.25;;;8.48;71.74
49585;BME280;35491;49.142;9.210;2023-05-03T04:49:44;100788.63;;;8.49;71.95
49585;BME280;35491;49.142;9.210;2023-05-03T04:50:51;100792.25;;;8.48;71.75
49585;BME280;35491;49.142;9.210;2023-05-03T04:51:53;100786.97;;;8.47;71.99
49585;BME280;35491;49.142;9.210;2023-05-03T04:52:58;100793.06;;;8.49;71.75
49585;BME280;35491;49.142;9.210;2023-05-03T04:54:02;100792.00;;;8.51;71.86
49585;BME280;35491;49.142;9.210;2023-05-03T04:55:04;100789.63;;;8.47;71.58
49585;BME280;35491;49.142;9.210;2023-05-03T04:56:08;100796.28;;;8.54;71.60
49585;BME280;35491;49.142;9.210;2023-05-03T04:57:11;100801.34;;;8.57;71.32
49585;BME280;35491;49.142;9.210;2023-05-03T05:07:55;100802.50;;;8.66;71.19
49585;BME280;35491;49.142;9.210;2023-05-03T05:10:18;100804.44;;;8.64;70.68
49585;BME280;35491;49.142;9.210;2023-05-03T05:11:22;100809.88;;;8.62;70.96
49585;BME280;35491;49.142;9.210;2023-05-03T05:12:36;100798.88;;;8.67;71.02
49585;BME280;35491;49.142;9.210;2023-05-03T05:13:41;100801.13;;;8.60;70.96
49585;BME280;35491;49.142;9.210;2023-05-03T05:14:55;100820.13;;;8.55;71.49
49585;BME280;35491;49.142;9.210;2023-05-03T05:15:57;100805.09;;;8.54;71.41
49585;BME280;35491;49.142;9.210;2023-05-03T05:17:01;100810.13;;;8.46;71.59
49585;BME280;35491;49.142;9.210;2023-05-03T05:19:38;100813.13;;;8.41;71.72
49585;BME280;35491;49.142;9.210;2023-05-03T05:20:43;100810.78;;;8.37;72.19
49585;BME280;35491;49.142;9.210;2023-05-03T05:21:48;100812.16;;;8.42;72.01
49585;BME280;35491;49.142;9.210;2023-05-03T05:24:34;100815.34;;;8.48;71.66
49585;BME280;35491;49.142;9.210;2023-05-03T05:25:58;100805.88;;;8.43;71.66
49585;BME280;35491;49.142;9.210;2023-05-03T05:27:08;100813.97;;;8.42;72.15
49585;BME280;35491;49.142;9.210;2023-05-03T05:28:25;100811.84;;;8.47;72.09
49585;BME280;35491;49.142;9.210;2023-05-03T05:29:31;100819.63;;;8.37;71.98
49585;BME280;35491;49.142;9.210;2023-05-03T05:30:33;100817.69;;;8.39;72.02
49585;BME280;35491;49.142;9.210;2023-05-03T05:31:45;100818.66;;;8.38;72.05
49585;BME280;35491;49.142;9.210;2023-05-03T05:32:53;100818.03;;;8.35;72.39
49585;BME280;35491;49.142;9.210;2023-05-03T05:33:54;100814.81;;;8.42;71.93
49585;BME280;35491;49.142;9.210;2023-05-03T05:35:04;100811.59;;;8.50;72.05
49585;BME280;35491;49.142;9.210;2023-05-03T05:36:32;100813.38;;;8.63;71.22
49585;BME280;35491;49.142;9.210;2023-05-03T05:37:37;100810.38;;;8.67;71.39
49585;BME280;35491;49.142;9.210;2023-05-03T05:41:01;100808.72;;;8.78;70.72
49585;BME280;35491;49.142;9.210;2023-05-03T05:42:11;100803.63;;;8.74;70.56
49585;BME280;35491;49.142;9.210;2023-05-03T05:43:20;100802.16;;;8.70;70.73
49585;BME280;35491;49.142;9.210;2023-05-03T05:44:52;100805.03;;;8.67;70.98
49585;BME280;35491;49.142;9.210;2023-05-03T05:46:02;100805.38;;;8.63;71.11
49585;BME280;35491;49.142;9.210;2023-05-03T05:47:07;100804.09;;;8.68;71.01
49585;BME280;35491;49.142;9.210;2023-05-03T05:48:12;100806.63;;;8.70;70.91
49585;BME280;35491;49.142;9.210;2023-05-03T05:49:16;100803.25;;;8.68;71.24
49585;BME280;35491;49.142;9.210;2023-05-03T05:50:18;100803.88;;;8.71;71.53
49585;BME280;35491;49.142;9.210;2023-05-03T05:51:22;100798.06;;;8.78;70.87
49585;BME280;35491;49.142;9.210;2023-05-03T05:52:30;100811.25;;;8.79;70.87
49585;BME280;35491;49.142;9.210;2023-05-03T05:53:32;100806.41;;;8.73;71.02
49585;BME280;35491;49.142;9.210;2023-05-03T05:54:36;100805.91;;;8.68;71.31
49585;BME280;35491;49.142;9.210;2023-05-03T05:56:51;100812.81;;;8.70;71.29